Pagrindinis puslapis
METAR-TAF:

METAR-TAF

Oro uostai :

Salvadoras, Salvadoras

platuma: 13-26N, ilguma: 089-03W, Aukštis: 25 m

Dabartinis oras

Ataskaita buvo paskelbta 19 minutes, ne 05:50 UTC
Vėjas 2 kt nuo kintamojo kryptimis
Temperatūra 23°C
Drėgmė 89%
Slėgis 1015 hPa
Matomumas 10 km arba daugiau
nėra debesų žemiau 1500 m ir nėra kamuolinių lietaus debesų

METAR: MSLP 070550Z VRB02KT CAVOK 23/21 Q1014 A2996 NOSIG

Laikas: 00:09 (06:09 UTC)

Prognozė

Ataskaita buvo paskelbta 2 valandos ir 44 minutes, ne 03:25 UTC
Prognozė galioja nuo 07 metu 06 UTC su 08 metu 06 UTC
Vėjas 8 kt iš Šiaurės/Šiaurės Rytų
Matomumas 10 km arba daugiau
nėra debesų žemiau 1500 m ir nėra kamuolinių lietaus debesų
Laikinai
nuo 07 metu 20 UTC su 08 metu 00 UTC
Vėjas 10 kt iš Pietų/Pietvakarių
Matomumas 10 km arba daugiau
Mažai debesys ne aukštis 7000 ft

TAF: MSLP 070325Z 0706/0806 02008KT CAVOK TX33/0718Z TN22/0712Z TEMPO 0720/0800 21010KT 9999 FEW070

Orai ataskaitas ir orų prognozės (METAR, TAF).

turimą stotys yra geltonos ir raudonos taškus žemėlapyje.

Perkelti pele per norėdami pamatyti stoties vardą.

Tada spustelėkite, norėdami matyti oro stebėjimo ir prognozės.

Norėdami pakeisti žemėlapį: spustelėkite ant žalios mygtukų su juodo kryžiaus žemyn,; žalią mygtuką su brūkšneliu, jei norite nutolinti; arba žalių rodyklių gretimoms žemėlapius.


METAR-TAF: